sensor_id;sensor_type;location;lat;lon;timestamp;pressure;altitude;pressure_sealevel;temperature;humidity
72707;BME280;62517;62.630;17.936;2022-08-11T10:10:04;101749.56;;;21.75;46.44
72707;BME280;62517;62.630;17.936;2022-08-11T10:12:37;101751.07;;;21.76;45.97
72707;BME280;62517;62.630;17.936;2022-08-11T10:15:09;101748.92;;;21.79;45.63
72707;BME280;62517;62.630;17.936;2022-08-11T10:17:43;101753.20;;;21.92;45.38
72707;BME280;62517;62.630;17.936;2022-08-11T10:20:12;101750.34;;;22.00;45.16
72707;BME280;62517;62.630;17.936;2022-08-11T10:22:42;101757.23;;;22.26;45.04
72707;BME280;62517;62.630;17.936;2022-08-11T10:25:12;101756.19;;;22.76;44.59
72707;BME280;62517;62.630;17.936;2022-08-11T10:27:42;101755.94;;;23.05;44.13
72707;BME280;62517;62.630;17.936;2022-08-11T10:30:12;101756.06;;;23.34;43.37
72707;BME280;62517;62.630;17.936;2022-08-11T10:32:42;101756.88;;;23.68;43.16
72707;BME280;62517;62.630;17.936;2022-08-11T10:35:11;101760.03;;;23.87;42.77
72707;BME280;62517;62.630;17.936;2022-08-11T10:37:42;101762.52;;;24.29;42.10
72707;BME280;62517;62.630;17.936;2022-08-11T10:40:16;101760.40;;;24.42;41.86
72707;BME280;62517;62.630;17.936;2022-08-11T10:42:45;101762.56;;;24.66;41.69
72707;BME280;62517;62.630;17.936;2022-08-11T10:45:15;101769.39;;;24.92;41.58
72707;BME280;62517;62.630;17.936;2022-08-11T10:47:46;101768.37;;;25.11;41.13
72707;BME280;62517;62.630;17.936;2022-08-11T10:50:15;101769.76;;;25.33;40.77
72707;BME280;62517;62.630;17.936;2022-08-11T10:52:47;101769.51;;;25.33;41.03
72707;BME280;62517;62.630;17.936;2022-08-11T10:55:16;101772.37;;;25.54;40.85
72707;BME280;62517;62.630;17.936;2022-08-11T10:57:45;101765.08;;;25.72;39.96
72707;BME280;62517;62.630;17.936;2022-08-11T11:00:15;101765.06;;;25.87;40.48
72707;BME280;62517;62.630;17.936;2022-08-11T11:02:45;101766.42;;;25.83;40.50
72707;BME280;62517;62.630;17.936;2022-08-11T11:05:19;101767.23;;;26.13;40.26
72707;BME280;62517;62.630;17.936;2022-08-11T11:07:54;101768.14;;;26.13;40.07
72707;BME280;62517;62.630;17.936;2022-08-11T11:10:26;101763.59;;;26.37;39.83
72707;BME280;62517;62.630;17.936;2022-08-11T11:12:57;101759.86;;;26.45;39.72
72707;BME280;62517;62.630;17.936;2022-08-11T11:15:28;101770.90;;;26.52;39.49
72707;BME280;62517;62.630;17.936;2022-08-11T11:18:03;101778.37;;;26.64;39.48
72707;BME280;62517;62.630;17.936;2022-08-11T11:20:36;101779.34;;;26.65;39.38
72707;BME280;62517;62.630;17.936;2022-08-11T11:23:12;101775.59;;;26.67;38.60
72707;BME280;62517;62.630;17.936;2022-08-11T11:25:53;101775.24;;;26.71;38.65
72707;BME280;62517;62.630;17.936;2022-08-11T11:28:37;101776.38;;;26.82;38.74
72707;BME280;62517;62.630;17.936;2022-08-11T11:31:21;101776.43;;;26.74;38.49
72707;BME280;62517;62.630;17.936;2022-08-11T11:34:08;101781.14;;;26.95;38.88
72707;BME280;62517;62.630;17.936;2022-08-11T11:36:44;101784.53;;;27.05;38.80
72707;BME280;62517;62.630;17.936;2022-08-11T11:39:18;101785.26;;;27.22;38.49
72707;BME280;62517;62.630;17.936;2022-08-11T11:41:52;101797.14;;;27.22;38.64
72707;BME280;62517;62.630;17.936;2022-08-11T11:44:22;101788.18;;;27.24;38.52
72707;BME280;62517;62.630;17.936;2022-08-11T11:46:52;101788.19;;;27.19;38.43
72707;BME280;62517;62.630;17.936;2022-08-11T11:49:25;101793.63;;;27.28;37.76
72707;BME280;62517;62.630;17.936;2022-08-11T11:51:56;101791.08;;;27.53;37.61
72707;BME280;62517;62.630;17.936;2022-08-11T11:54:27;101784.19;;;27.29;37.61
72707;BME280;62517;62.630;17.936;2022-08-11T11:56:58;101782.30;;;27.48;37.86
72707;BME280;62517;62.630;17.936;2022-08-11T11:59:27;101781.98;;;27.40;37.71
72707;BME280;62517;62.630;17.936;2022-08-11T12:01:57;101785.18;;;27.40;37.94
72707;BME280;62517;62.630;17.936;2022-08-11T12:04:27;101789.72;;;27.57;37.76
72707;BME280;62517;62.630;17.936;2022-08-11T12:06:57;101785.62;;;27.57;38.00
72707;BME280;62517;62.630;17.936;2022-08-11T12:09:26;101786.83;;;27.70;37.43
72707;BME280;62517;62.630;17.936;2022-08-11T12:11:56;101792.74;;;27.74;37.77
72707;BME280;62517;62.630;17.936;2022-08-11T12:14:26;101793.77;;;27.64;37.73
72707;BME280;62517;62.630;17.936;2022-08-11T12:16:56;101796.30;;;27.73;37.61
72707;BME280;62517;62.630;17.936;2022-08-11T12:19:27;101804.49;;;27.84;37.08
72707;BME280;62517;62.630;17.936;2022-08-11T12:21:56;101804.38;;;27.71;37.53
72707;BME280;62517;62.630;17.936;2022-08-11T12:24:26;101802.78;;;27.70;37.46
72707;BME280;62517;62.630;17.936;2022-08-11T12:26:55;101800.48;;;27.89;37.17
72707;BME280;62517;62.630;17.936;2022-08-11T12:29:25;101801.82;;;27.78;37.00
72707;BME280;62517;62.630;17.936;2022-08-11T12:31:55;101805.54;;;27.82;37.38
72707;BME280;62517;62.630;17.936;2022-08-11T12:34:26;101808.72;;;27.85;37.36
72707;BME280;62517;62.630;17.936;2022-08-11T12:36:57;101810.88;;;27.88;36.83
72707;BME280;62517;62.630;17.936;2022-08-11T12:39:32;101814.89;;;27.86;36.82
72707;BME280;62517;62.630;17.936;2022-08-11T12:42:03;101812.50;;;27.93;36.78
72707;BME280;62517;62.630;17.936;2022-08-11T12:44:32;101815.59;;;27.97;36.74
72707;BME280;62517;62.630;17.936;2022-08-11T12:47:02;101815.64;;;27.95;36.94
72707;BME280;62517;62.630;17.936;2022-08-11T12:49:35;101816.45;;;27.90;36.95
72707;BME280;62517;62.630;17.936;2022-08-11T12:52:08;101813.46;;;27.98;36.99
72707;BME280;62517;62.630;17.936;2022-08-11T12:54:47;101812.72;;;27.87;36.77
72707;BME280;62517;62.630;17.936;2022-08-11T12:57:22;101819.74;;;28.00;36.68
72707;BME280;62517;62.630;17.936;2022-08-11T12:59:53;101815.61;;;28.04;36.94
72707;BME280;62517;62.630;17.936;2022-08-11T13:02:25;101817.19;;;28.10;36.32
72707;BME280;62517;62.630;17.936;2022-08-11T13:04:54;101816.74;;;27.98;36.89
72707;BME280;62517;62.630;17.936;2022-08-11T13:07:25;101814.01;;;28.14;36.12
72707;BME280;62517;62.630;17.936;2022-08-11T13:09:55;101812.93;;;28.10;36.78
72707;BME280;62517;62.630;17.936;2022-08-11T13:12:24;101819.85;;;28.21;36.58
72707;BME280;62517;62.630;17.936;2022-08-11T13:14:54;101821.05;;;28.17;36.63
72707;BME280;62517;62.630;17.936;2022-08-11T13:17:23;101827.03;;;28.08;36.23
72707;BME280;62517;62.630;17.936;2022-08-11T13:19:52;101823.86;;;28.09;36.74
72707;BME280;62517;62.630;17.936;2022-08-11T13:22:22;101824.10;;;28.15;36.63
72707;BME280;62517;62.630;17.936;2022-08-11T13:24:52;101822.10;;;28.27;36.03
72707;BME280;62517;62.630;17.936;2022-08-11T13:27:21;101819.71;;;28.31;36.31
72707;BME280;62517;62.630;17.936;2022-08-11T13:29:51;101818.02;;;28.17;36.18
72707;BME280;62517;62.630;17.936;2022-08-11T13:32:21;101818.63;;;28.20;36.21
72707;BME280;62517;62.630;17.936;2022-08-11T13:34:49;101818.69;;;28.24;36.56
72707;BME280;62517;62.630;17.936;2022-08-11T13:37:20;101823.83;;;28.18;35.87
72707;BME280;62517;62.630;17.936;2022-08-11T13:39:50;101822.20;;;28.13;35.98
72707;BME280;62517;62.630;17.936;2022-08-11T13:42:23;101825.23;;;28.25;36.35
72707;BME280;62517;62.630;17.936;2022-08-11T13:44:53;101824.37;;;28.19;35.98
72707;BME280;62517;62.630;17.936;2022-08-11T13:47:23;101825.30;;;28.33;35.87
72707;BME280;62517;62.630;17.936;2022-08-11T13:49:52;101818.54;;;28.21;36.41
72707;BME280;62517;62.630;17.936;2022-08-11T13:52:21;101814.07;;;28.21;36.13
72707;BME280;62517;62.630;17.936;2022-08-11T13:54:51;101824.24;;;28.18;36.07
72707;BME280;62517;62.630;17.936;2022-08-11T13:57:21;101825.34;;;28.35;36.24
72707;BME280;62517;62.630;17.936;2022-08-11T13:59:53;101822.22;;;28.18;36.01
72707;BME280;62517;62.630;17.936;2022-08-11T14:02:27;101826.84;;;28.28;35.80
72707;BME280;62517;62.630;17.936;2022-08-11T14:04:57;101829.27;;;28.24;35.98
72707;BME280;62517;62.630;17.936;2022-08-11T14:07:33;101826.17;;;28.40;35.81
72707;BME280;62517;62.630;17.936;2022-08-11T14:10:04;101823.63;;;28.31;35.51
72707;BME280;62517;62.630;17.936;2022-08-11T14:12:34;101822.61;;;28.40;36.14
72707;BME280;62517;62.630;17.936;2022-08-11T14:15:12;101821.74;;;28.29;35.57
72707;BME280;62517;62.630;17.936;2022-08-11T14:17:43;101826.88;;;28.45;35.91
72707;BME280;62517;62.630;17.936;2022-08-11T14:20:15;101827.30;;;28.34;35.64
72707;BME280;62517;62.630;17.936;2022-08-11T14:22:45;101830.30;;;28.34;35.94
72707;BME280;62517;62.630;17.936;2022-08-11T14:25:15;101821.25;;;28.50;35.48
72707;BME280;62517;62.630;17.936;2022-08-11T14:27:44;101821.25;;;28.51;35.45
72707;BME280;62517;62.630;17.936;2022-08-11T14:30:14;101820.06;;;28.43;35.78
72707;BME280;62517;62.630;17.936;2022-08-11T14:32:43;101820.93;;;28.45;35.32
72707;BME280;62517;62.630;17.936;2022-08-11T14:35:11;101815.51;;;28.43;35.40
72707;BME280;62517;62.630;17.936;2022-08-11T14:37:40;101821.50;;;28.34;35.70
72707;BME280;62517;62.630;17.936;2022-08-11T14:40:10;101822.91;;;28.44;35.13
72707;BME280;62517;62.630;17.936;2022-08-11T14:42:39;101820.67;;;28.57;35.10
72707;BME280;62517;62.630;17.936;2022-08-11T14:45:09;101821.52;;;28.46;35.21
72707;BME280;62517;62.630;17.936;2022-08-11T14:47:41;101816.54;;;28.37;35.05
72707;BME280;62517;62.630;17.936;2022-08-11T14:50:11;101817.87;;;28.52;35.57
72707;BME280;62517;62.630;17.936;2022-08-11T14:52:46;101818.86;;;28.51;35.36
72707;BME280;62517;62.630;17.936;2022-08-11T14:55:16;101819.18;;;28.47;35.39
72707;BME280;62517;62.630;17.936;2022-08-11T14:57:46;101821.12;;;28.53;35.34
